Terminal Aerodrome Forecast
Issued by NWS Twin Cities, MN

Home | Current Version | Previous Version | Text Only | Print | Product List | Glossary On
Versions: 1 2 3 4 5 6 7 8 9 10 11 12 13 14 15 16
000
FTUS43 KMPX 231737
TAFSTC
TAF
KSTC 231737Z 2318/2418 13008KT P6SM BKN080
     FM232100 15010KT P6SM BKN060
     FM240400 14004KT P6SM SCT250
     FM240900 17006KT P6SM BKN130
     FM241600 18012KT P6SM SCT200=

USA.gov is the U.S. government's official web portal to all federal, state and local government web resources and services.